Celeste Of Solent — MBGX2 — position and weather

sailwx.info

Track history (hours):
 
Tides and Currents Weather Stations Pressure Air Temp Water Temp Dewpoint Dewpoint Depression Visibility Wind Speed Wind Dir Waves Ship Positions

Celeste Of Solent

Last reported at 2017-Sep-24 01:01 UTC. Time now 2017-Oct-19 07:01 UTC.
Position N 36°49' W 010°49'.
Warning: this ship's position is 25 days out of date.

Length 19 m.

Type: Sailing vessel. MMSI: 235031438.

Date/timePositionNaut miles runAvg speedWind from/ knotsBaromVisibWave heightAir tempDewpointWater temp
2017-Sep-24 01:01N 36°49' W 010°49'0 7.6
2017-Sep-24 00:59N 36°50' W 010°49'4 7.7
2017-Sep-24 00:30N 36°53' W 010°46'16 6.4
2017-Sep-23 21:58N 37°01' W 010°29'17 6.9
2017-Sep-23 19:33N 37°14' W 010°15'96 2.3
2017-Sep-22 01:52N 38°42' W 009°25'0 0.0
2017-Sep-22 01:10N 38°42' W 009°25'0 0.0
2017-Sep-22 00:40N 38°42' W 009°25'0 0.0
2017-Sep-22 00:22N 38°42' W 009°25'0 0.0
2017-Sep-21 23:43N 38°42' W 009°25'0 0.0
2017-Sep-21 23:25N 38°42' W 009°25'0 0.0
2017-Sep-21 22:58N 38°42' W 009°25'0 0.0
2017-Sep-21 22:04N 38°42' W 009°25'0 0.0
2017-Sep-21 21:58N 38°42' W 009°25'0 0.0
2017-Sep-21 21:28N 38°42' W 009°25'0 0.0
2017-Sep-21 20:58N 38°42' W 009°25'0 0.0
2017-Sep-21 20:28N 38°42' W 009°25'0 0.0
2017-Sep-21 19:55N 38°42' W 009°25'0 0.0
2017-Sep-21 18:58N 38°42' W 009°25'0 0.0
2017-Sep-21 17:22N 38°42' W 009°25'0 0.0
2017-Sep-21 16:58N 38°42' W 009°25'0 0.0
2017-Sep-21 16:28N 38°42' W 009°25'0 0.0
2017-Sep-21 15:10N 38°42' W 009°25'0 0.0
2017-Sep-21 14:58N 38°42' W 009°25'0 0.0
2017-Sep-21 14:22N 38°42' W 009°25'0 0.0
2017-Sep-21 13:58N 38°42' W 009°25'0 0.0
2017-Sep-21 13:25N 38°42' W 009°25'0 0.0
2017-Sep-21 11:16N 38°42' W 009°25'0 0.0
2017-Sep-21 10:19N 38°42' W 009°25'0 0.0
2017-Sep-21 09:58N 38°42' W 009°25'0 0.0
2017-Sep-21 09:25N 38°42' W 009°25'0 0.0
2017-Sep-21 07:58N 38°42' W 009°25'0 0.0
2017-Sep-21 07:28N 38°42' W 009°25'0 0.0
2017-Sep-21 06:46N 38°42' W 009°25'0 0.0
2017-Sep-21 06:28N 38°42' W 009°25'0 0.0
2017-Sep-21 05:58N 38°42' W 009°25'0 0.0
2017-Sep-21 05:01N 38°42' W 009°25'0 0.0
2017-Sep-21 04:55N 38°42' W 009°25'0 0.0
2017-Sep-21 04:25N 38°42' W 009°25'0 0.0
2017-Sep-21 03:46N 38°42' W 009°25'0 0.0
2017-Sep-21 02:46N 38°42' W 009°25'0 0.0
2017-Sep-21 02:16N 38°42' W 009°25'0 0.0
2017-Sep-21 00:52N 38°42' W 009°25'0 0.0
2017-Sep-21 00:07N 38°42' W 009°25'0 0.0
2017-Sep-20 23:58N 38°42' W 009°25'0 0.0
2017-Sep-20 23:28N 38°42' W 009°25'0 0.0
2017-Sep-20 22:58N 38°42' W 009°25'0 0.0
2017-Sep-20 22:28N 38°42' W 009°25'0 0.0
2017-Sep-20 21:58N 38°42' W 009°25'0 0.0
2017-Sep-20 21:22N 38°42' W 009°25'0 0.0
2017-Sep-20 20:46N 38°42' W 009°25'0 0.0
2017-Sep-20 20:22N 38°42' W 009°25'0 0.0
2017-Sep-20 19:58N 38°42' W 009°25'0 0.0
2017-Sep-20 18:52N 38°42' W 009°25'0 0.0
2017-Sep-20 18:25N 38°42' W 009°25'0 0.0
2017-Sep-20 17:34N 38°42' W 009°25'0 0.0
2017-Sep-20 17:13N 38°42' W 009°25'0 0.0
2017-Sep-20 16:46N 38°42' W 009°25'0 0.0
2017-Sep-20 16:22N 38°42' W 009°25'0 0.0
2017-Sep-20 15:58N 38°42' W 009°25'0 0.0
2017-Sep-20 15:25N 38°42' W 009°25'0 0.0
2017-Sep-20 14:58N 38°42' W 009°25'1 1.1
2017-Sep-20 14:00N 38°41' W 009°26'3 5.6
2017-Sep-20 13:23N 38°43' W 009°30'3 6.5
2017-Sep-20 12:58N 38°46' W 009°31'3 6.3
2017-Sep-20 12:30N 38°49' W 009°31'3 6.4
2017-Sep-20 12:00N 38°52' W 009°31'2 3.5
2017-Sep-20 11:30N 38°54' W 009°32'3 6.6
2017-Sep-20 11:00N 38°57' W 009°31'3 5.1
2017-Sep-20 10:30N 38°59' W 009°31'3 6.7
2017-Sep-20 10:00N 39°03' W 009°31'3 5.7
2017-Sep-20 09:29N 39°06' W 009°32'3 5.3
2017-Sep-20 08:59N 39°08' W 009°33'3 5.3
2017-Sep-20 08:29N 39°10' W 009°35'  
Track history (hours):
 
Tides and Currents Weather Stations Pressure Air Temp Water Temp Dewpoint Dewpoint Depression Visibility Wind Speed Wind Dir Waves Ship Positions

Celeste Of Solent

Last reported at 2017-Sep-24 01:01 UTC. Time now 2017-Oct-19 07:01 UTC.
Position N 36°49' W 010°49'.
Warning: this ship's position is 25 days out of date.

Length 19 m.

Type: Sailing vessel. MMSI: 235031438.

Date/timePositionNaut miles runAvg speedWind from/ knotsBaromVisibWave heightAir tempDewpointWater temp
2017-Sep-24 01:01N 36°49' W 010°49'0 7.6
2017-Sep-24 00:59N 36°50' W 010°49'4 7.7
2017-Sep-24 00:30N 36°53' W 010°46'16 6.4
2017-Sep-23 21:58N 37°01' W 010°29'17 6.9
2017-Sep-23 19:33N 37°14' W 010°15'96 2.3
2017-Sep-22 01:52N 38°42' W 009°25'0 0.0
2017-Sep-22 01:10N 38°42' W 009°25'0 0.0
2017-Sep-22 00:40N 38°42' W 009°25'0 0.0
2017-Sep-22 00:22N 38°42' W 009°25'0 0.0
2017-Sep-21 23:43N 38°42' W 009°25'0 0.0
2017-Sep-21 23:25N 38°42' W 009°25'0 0.0
2017-Sep-21 22:58N 38°42' W 009°25'0 0.0
2017-Sep-21 22:04N 38°42' W 009°25'0 0.0
2017-Sep-21 21:58N 38°42' W 009°25'0 0.0
2017-Sep-21 21:28N 38°42' W 009°25'0 0.0
2017-Sep-21 20:58N 38°42' W 009°25'0 0.0
2017-Sep-21 20:28N 38°42' W 009°25'0 0.0
2017-Sep-21 19:55N 38°42' W 009°25'0 0.0
2017-Sep-21 18:58N 38°42' W 009°25'0 0.0
2017-Sep-21 17:22N 38°42' W 009°25'0 0.0
2017-Sep-21 16:58N 38°42' W 009°25'0 0.0
2017-Sep-21 16:28N 38°42' W 009°25'0 0.0
2017-Sep-21 15:10N 38°42' W 009°25'0 0.0
2017-Sep-21 14:58N 38°42' W 009°25'0 0.0
2017-Sep-21 14:22N 38°42' W 009°25'0 0.0
2017-Sep-21 13:58N 38°42' W 009°25'0 0.0
2017-Sep-21 13:25N 38°42' W 009°25'0 0.0
2017-Sep-21 11:16N 38°42' W 009°25'0 0.0
2017-Sep-21 10:19N 38°42' W 009°25'0 0.0
2017-Sep-21 09:58N 38°42' W 009°25'0 0.0
2017-Sep-21 09:25N 38°42' W 009°25'0 0.0
2017-Sep-21 07:58N 38°42' W 009°25'0 0.0
2017-Sep-21 07:28N 38°42' W 009°25'0 0.0
2017-Sep-21 06:46N 38°42' W 009°25'0 0.0
2017-Sep-21 06:28N 38°42' W 009°25'0 0.0
2017-Sep-21 05:58N 38°42' W 009°25'0 0.0
2017-Sep-21 05:01N 38°42' W 009°25'0 0.0
2017-Sep-21 04:55N 38°42' W 009°25'0 0.0
2017-Sep-21 04:25N 38°42' W 009°25'0 0.0
2017-Sep-21 03:46N 38°42' W 009°25'0 0.0
2017-Sep-21 02:46N 38°42' W 009°25'0 0.0
2017-Sep-21 02:16N 38°42' W 009°25'0 0.0
2017-Sep-21 00:52N 38°42' W 009°25'0 0.0
2017-Sep-21 00:07N 38°42' W 009°25'0 0.0
2017-Sep-20 23:58N 38°42' W 009°25'0 0.0
2017-Sep-20 23:28N 38°42' W 009°25'0 0.0
2017-Sep-20 22:58N 38°42' W 009°25'0 0.0
2017-Sep-20 22:28N 38°42' W 009°25'0 0.0
2017-Sep-20 21:58N 38°42' W 009°25'0 0.0
2017-Sep-20 21:22N 38°42' W 009°25'0 0.0
2017-Sep-20 20:46N 38°42' W 009°25'0 0.0
2017-Sep-20 20:22N 38°42' W 009°25'0 0.0
2017-Sep-20 19:58N 38°42' W 009°25'0 0.0
2017-Sep-20 18:52N 38°42' W 009°25'0 0.0
2017-Sep-20 18:25N 38°42' W 009°25'0 0.0
2017-Sep-20 17:34N 38°42' W 009°25'0 0.0
2017-Sep-20 17:13N 38°42' W 009°25'0 0.0
2017-Sep-20 16:46N 38°42' W 009°25'0 0.0
2017-Sep-20 16:22N 38°42' W 009°25'0 0.0
2017-Sep-20 15:58N 38°42' W 009°25'0 0.0
2017-Sep-20 15:25N 38°42' W 009°25'0 0.0
2017-Sep-20 14:58N 38°42' W 009°25'1 1.1
2017-Sep-20 14:00N 38°41' W 009°26'3 5.6
2017-Sep-20 13:23N 38°43' W 009°30'3 6.5
2017-Sep-20 12:58N 38°46' W 009°31'3 6.3
2017-Sep-20 12:30N 38°49' W 009°31'3 6.4
2017-Sep-20 12:00N 38°52' W 009°31'2 3.5
2017-Sep-20 11:30N 38°54' W 009°32'3 6.6
2017-Sep-20 11:00N 38°57' W 009°31'3 5.1
2017-Sep-20 10:30N 38°59' W 009°31'3 6.7
2017-Sep-20 10:00N 39°03' W 009°31'3 5.7
2017-Sep-20 09:29N 39°06' W 009°32'3 5.3
2017-Sep-20 08:59N 39°08' W 009°33'3 5.3
2017-Sep-20 08:29N 39°10' W 009°35'  

Dump ship's entire track history